createdAt,value
2023-03-22T00:00:21.165Z,8.23
2023-03-22T00:02:26.248Z,8.26
2023-03-22T00:04:29.764Z,8.30
2023-03-22T00:06:33.298Z,8.34
2023-03-22T00:08:38.507Z,8.39
2023-03-22T00:10:43.054Z,8.42
2023-03-22T00:12:46.694Z,8.45
2023-03-22T00:14:49.905Z,8.47
2023-03-22T00:16:53.158Z,8.49
2023-03-22T00:18:56.418Z,8.50
2023-03-22T00:21:00.795Z,8.52
2023-03-22T00:23:04.040Z,8.54
2023-03-22T00:25:09.497Z,8.55
2023-03-22T00:27:12.844Z,8.55
2023-03-22T00:29:17.592Z,8.55
2023-03-22T00:31:21.031Z,8.52
2023-03-22T00:33:24.952Z,8.52
2023-03-22T00:35:28.335Z,8.50
2023-03-22T00:37:38.714Z,8.48
2023-03-22T00:39:42.004Z,8.45
2023-03-22T00:41:46.739Z,8.43
2023-03-22T00:43:51.223Z,8.39
2023-03-22T00:45:54.454Z,8.38
2023-03-22T00:47:57.726Z,8.35
2023-03-22T00:50:01.194Z,8.35
2023-03-22T00:52:04.682Z,8.36
2023-03-22T00:54:08.104Z,8.40
2023-03-22T00:56:14.020Z,8.42
2023-03-22T00:58:28.830Z,8.44
2023-03-22T01:00:33.657Z,8.45
2023-03-22T01:02:37.010Z,8.47
2023-03-22T01:04:40.320Z,8.50
2023-03-22T01:06:43.541Z,8.52
2023-03-22T01:08:46.743Z,8.55
2023-03-22T01:10:53.123Z,8.57
2023-03-22T01:12:56.873Z,8.57
2023-03-22T01:15:01.588Z,8.59
2023-03-22T01:17:05.432Z,8.58
2023-03-22T01:19:08.639Z,8.61
2023-03-22T01:21:12.235Z,8.63
2023-03-22T01:23:15.983Z,8.65
2023-03-22T01:25:19.570Z,8.67
2023-03-22T01:27:22.767Z,8.67
2023-03-22T01:29:26.960Z,8.69
2023-03-22T01:31:31.942Z,8.70
2023-03-22T01:33:35.475Z,8.73
2023-03-22T01:35:39.028Z,8.74
2023-03-22T01:37:43.127Z,8.75
2023-03-22T01:39:46.694Z,8.76
2023-03-22T01:41:52.352Z,8.75
2023-03-22T01:44:09.582Z,8.75
2023-03-22T01:46:13.343Z,8.76
2023-03-22T01:48:25.955Z,8.77
2023-03-22T01:50:29.974Z,8.79
2023-03-22T01:52:33.454Z,8.79
2023-03-22T01:54:44.990Z,8.81
2023-03-22T01:57:11.420Z,8.82
2023-03-22T01:59:17.588Z,8.85
2023-03-22T02:01:36.214Z,8.85
2023-03-22T02:03:49.497Z,8.85
2023-03-22T02:05:53.846Z,8.86
2023-03-22T02:07:59.470Z,8.86
2023-03-22T02:10:06.146Z,8.85
2023-03-22T02:12:28.958Z,8.87
2023-03-22T02:14:55.973Z,8.85
2023-03-22T02:17:34.855Z,8.83
2023-03-22T02:20:29.326Z,8.81
2023-03-22T02:23:08.761Z,8.81
2023-03-22T02:25:34.088Z,8.78
2023-03-22T02:28:13.764Z,8.77
2023-03-22T02:30:39.986Z,8.75
2023-03-22T02:33:03.415Z,8.75
2023-03-22T02:35:38.710Z,8.76
2023-03-22T02:38:01.556Z,8.77
2023-03-22T02:40:12.787Z,8.78
2023-03-22T02:42:28.479Z,8.79
2023-03-22T02:44:42.744Z,8.80
2023-03-22T02:46:49.208Z,8.82
2023-03-22T02:49:01.471Z,8.83
2023-03-22T02:51:09.480Z,8.84
2023-03-22T02:53:18.965Z,8.85
2023-03-22T02:55:28.170Z,8.86
2023-03-22T02:57:37.950Z,8.86
2023-03-22T02:59:43.507Z,8.88
2023-03-22T03:01:50.911Z,8.90
2023-03-22T03:03:57.709Z,8.91
2023-03-22T03:06:06.153Z,8.92
2023-03-22T03:08:13.351Z,8.92
2023-03-22T03:10:20.351Z,8.93
2023-03-22T03:12:27.031Z,8.94
2023-03-22T03:14:33.702Z,8.94
2023-03-22T03:16:37.266Z,8.95
2023-03-22T03:18:45.817Z,8.96
2023-03-22T03:21:02.456Z,8.98
2023-03-22T03:23:17.648Z,8.99
2023-03-22T03:25:29.247Z,9.00
2023-03-22T03:27:38.330Z,9.00
2023-03-22T03:29:45.948Z,9.00
2023-03-22T03:31:54.759Z,9.01
2023-03-22T03:34:06.600Z,9.01
2023-03-22T03:36:12.482Z,9.00
2023-03-22T03:38:19.395Z,9.01
2023-03-22T03:40:27.319Z,8.98
2023-03-22T03:42:31.698Z,8.99
2023-03-22T03:44:38.615Z,8.97
2023-03-22T03:46:42.825Z,8.94
2023-03-22T03:48:50.797Z,8.92
2023-03-22T03:50:55.420Z,8.91
2023-03-22T03:52:58.813Z,8.89
2023-03-22T03:55:02.096Z,8.89
2023-03-22T03:57:08.921Z,8.89
2023-03-22T03:59:15.868Z,8.89
2023-03-22T04:01:21.520Z,8.90
2023-03-22T04:03:32.477Z,8.88
2023-03-22T04:05:47.769Z,8.89
2023-03-22T04:07:51.135Z,8.89
2023-03-22T04:09:54.842Z,8.89
2023-03-22T04:12:03.499Z,8.90
2023-03-22T04:14:06.937Z,8.91
2023-03-22T04:16:11.031Z,8.91
2023-03-22T04:18:15.933Z,8.92
2023-03-22T04:20:19.617Z,8.93
2023-03-22T04:22:23.710Z,8.93
2023-03-22T04:24:27.434Z,8.94
2023-03-22T04:26:30.824Z,8.94
2023-03-22T04:28:52.169Z,8.94
2023-03-22T04:30:57.899Z,8.94
2023-03-22T04:33:23.007Z,8.94
2023-03-22T04:35:46.279Z,8.94
2023-03-22T04:37:50.070Z,8.94
2023-03-22T04:39:56.039Z,8.93
2023-03-22T04:42:10.382Z,8.93
2023-03-22T04:44:14.358Z,8.93
2023-03-22T04:46:25.465Z,8.91
2023-03-22T04:48:41.364Z,8.91
2023-03-22T04:50:46.632Z,8.89
2023-03-22T04:52:50.323Z,8.88
2023-03-22T04:54:53.777Z,8.88
2023-03-22T04:56:56.986Z,8.86
2023-03-22T04:59:02.677Z,8.85
2023-03-22T05:01:06.257Z,8.85
2023-03-22T05:03:09.832Z,8.84
2023-03-22T05:05:18.906Z,8.82
2023-03-22T05:07:23.725Z,8.81
2023-03-22T05:09:31.102Z,8.80
2023-03-22T05:11:34.841Z,8.80
2023-03-22T05:14:01.032Z,8.81
2023-03-22T05:16:05.622Z,8.81
2023-03-22T05:18:20.832Z,8.84
2023-03-22T05:20:25.564Z,8.86
2023-03-22T05:22:50.782Z,8.88
2023-03-22T05:24:55.713Z,8.89
2023-03-22T05:27:03.798Z,8.90
2023-03-22T05:29:08.114Z,8.91
2023-03-22T05:31:34.567Z,8.92
2023-03-22T05:33:39.292Z,8.92
2023-03-22T05:35:49.905Z,8.92
2023-03-22T05:37:53.693Z,8.94
2023-03-22T05:39:58.008Z,8.97
2023-03-22T05:42:11.889Z,8.98
2023-03-22T05:44:15.150Z,8.99
2023-03-22T05:46:28.088Z,9.02
2023-03-22T05:48:54.431Z,9.04
2023-03-22T05:51:00.633Z,9.06
2023-03-22T05:53:06.481Z,9.08
2023-03-22T05:55:20.533Z,9.08
2023-03-22T05:57:25.384Z,9.09
2023-03-22T05:59:28.730Z,9.10
2023-03-22T06:01:33.515Z,9.10
2023-03-22T06:03:58.938Z,9.12
2023-03-22T06:06:13.841Z,9.12
2023-03-22T06:08:26.539Z,9.13
2023-03-22T06:10:30.545Z,9.14
2023-03-22T06:12:34.168Z,9.14
2023-03-22T06:14:49.142Z,9.15
2023-03-22T06:17:10.800Z,9.16
2023-03-22T06:19:13.994Z,9.18
2023-03-22T06:21:18.573Z,9.23
2023-03-22T06:23:22.267Z,9.28
2023-03-22T06:25:25.516Z,9.33
2023-03-22T06:27:28.967Z,9.37
2023-03-22T06:29:32.408Z,9.43
2023-03-22T06:31:38.407Z,9.49
2023-03-22T06:33:45.485Z,9.56
2023-03-22T06:36:01.957Z,9.63
2023-03-22T06:38:16.500Z,9.68
2023-03-22T06:40:20.780Z,9.74
2023-03-22T06:42:24.002Z,9.79
2023-03-22T06:44:36.654Z,9.84
2023-03-22T06:47:12.104Z,9.91
2023-03-22T06:49:33.550Z,9.95
2023-03-22T06:51:36.741Z,9.98
2023-03-22T06:53:41.907Z,10.00
2023-03-22T06:55:45.413Z,10.01
2023-03-22T06:57:54.419Z,10.02
2023-03-22T06:59:57.745Z,10.04
2023-03-22T07:02:01.244Z,10.05
2023-03-22T07:04:04.825Z,10.06
2023-03-22T07:06:09.977Z,10.08
2023-03-22T07:08:17.176Z,10.09
2023-03-22T07:10:28.661Z,10.11
2023-03-22T07:12:32.795Z,10.15
2023-03-22T07:14:41.399Z,10.18
2023-03-22T07:17:04.847Z,10.23
2023-03-22T07:19:08.234Z,10.28
2023-03-22T07:21:12.946Z,10.31
2023-03-22T07:23:18.489Z,10.32
2023-03-22T07:25:27.914Z,10.35
2023-03-22T07:27:40.630Z,10.37
2023-03-22T07:29:44.315Z,10.37
2023-03-22T07:31:48.012Z,10.37
2023-03-22T07:34:20.344Z,10.37
2023-03-22T07:36:48.062Z,10.40
2023-03-22T07:38:52.196Z,10.43
2023-03-22T07:41:03.268Z,10.49
2023-03-22T07:43:22.939Z,10.56
2023-03-22T07:45:40.967Z,10.65
2023-03-22T07:48:13.114Z,10.71
2023-03-22T07:50:31.613Z,10.77
2023-03-22T07:52:37.157Z,10.81
2023-03-22T07:54:40.770Z,10.84
2023-03-22T07:56:48.071Z,10.86
2023-03-22T07:58:51.598Z,10.88
2023-03-22T08:00:55.060Z,10.88
2023-03-22T08:03:18.641Z,10.89
2023-03-22T08:05:40.768Z,10.92
2023-03-22T08:07:44.880Z,10.96
2023-03-22T08:09:50.929Z,11.01
2023-03-22T08:11:55.555Z,11.06
2023-03-22T08:13:59.545Z,11.11
2023-03-22T08:16:03.138Z,11.14
2023-03-22T08:18:08.780Z,11.15
2023-03-22T08:20:18.414Z,11.17
2023-03-22T08:22:29.980Z,11.18
2023-03-22T08:24:51.995Z,11.19
2023-03-22T08:27:04.508Z,11.21
2023-03-22T08:29:23.708Z,11.23
2023-03-22T08:31:27.226Z,11.23
2023-03-22T08:33:30.523Z,11.26
2023-03-22T08:35:33.794Z,11.29
2023-03-22T08:37:37.117Z,11.34
2023-03-22T08:39:42.114Z,11.44
2023-03-22T08:41:56.283Z,11.58
2023-03-22T08:44:03.350Z,11.77
2023-03-22T08:46:07.738Z,11.93
2023-03-22T08:48:11.185Z,12.04
2023-03-22T08:50:35.312Z,12.13
2023-03-22T08:52:53.798Z,12.18
2023-03-22T08:55:04.858Z,12.26
2023-03-22T08:57:40.400Z,12.35
2023-03-22T09:00:10.946Z,12.45
2023-03-22T09:02:27.622Z,12.54
2023-03-22T09:04:32.704Z,12.62
2023-03-22T09:06:37.537Z,12.70
2023-03-22T09:08:41.349Z,12.82
2023-03-22T09:10:52.303Z,12.96
2023-03-22T09:12:58.071Z,13.05
2023-03-22T09:15:01.410Z,13.11
2023-03-22T09:17:08.438Z,13.18
2023-03-22T09:19:11.781Z,13.24
2023-03-22T09:21:17.008Z,13.32
2023-03-22T09:23:30.425Z,13.39
2023-03-22T09:25:33.960Z,13.42
2023-03-22T09:27:37.403Z,13.41
2023-03-22T09:29:40.699Z,13.39
2023-03-22T09:31:49.703Z,13.38
2023-03-22T09:33:58.361Z,13.37
2023-03-22T09:36:02.440Z,13.36
2023-03-22T09:38:08.174Z,13.36
2023-03-22T09:40:13.725Z,13.39
2023-03-22T09:42:27.618Z,13.43
2023-03-22T09:44:35.282Z,13.44
2023-03-22T09:46:42.133Z,13.46
2023-03-22T09:48:48.397Z,13.48
2023-03-22T09:50:55.422Z,13.47
2023-03-22T09:52:59.702Z,13.49
2023-03-22T09:55:03.238Z,13.53
2023-03-22T09:57:12.280Z,13.55
2023-03-22T09:59:23.296Z,13.55
2023-03-22T10:01:37.473Z,13.58
2023-03-22T10:04:13.845Z,13.60
2023-03-22T10:06:21.774Z,13.67
2023-03-22T10:08:42.251Z,13.70
2023-03-22T10:10:45.671Z,13.68
2023-03-22T10:12:55.241Z,13.69
2023-03-22T10:15:06.846Z,13.67
2023-03-22T10:17:13.354Z,13.64
2023-03-22T10:19:24.423Z,13.57
2023-03-22T10:21:29.471Z,13.51
2023-03-22T10:23:39.179Z,13.48
2023-03-22T10:25:44.171Z,13.46
2023-03-22T10:27:50.740Z,13.46
2023-03-22T10:30:00.753Z,13.44
2023-03-22T10:32:16.087Z,13.46
2023-03-22T10:34:23.122Z,13.51
2023-03-22T10:36:34.814Z,13.57
2023-03-22T10:38:44.800Z,13.62
2023-03-22T10:40:50.587Z,13.64
2023-03-22T10:42:57.368Z,13.69
2023-03-22T10:45:03.661Z,13.72
2023-03-22T10:47:11.006Z,13.75
2023-03-22T10:49:20.073Z,13.77
2023-03-22T10:51:29.195Z,13.79
2023-03-22T10:53:39.552Z,13.81
2023-03-22T10:55:44.007Z,13.79
2023-03-22T10:57:57.620Z,13.77
2023-03-22T11:00:01.089Z,13.75
2023-03-22T11:02:04.554Z,13.75
2023-03-22T11:04:11.462Z,13.79
2023-03-22T11:06:17.453Z,13.84
2023-03-22T11:08:20.802Z,13.87
2023-03-22T11:10:32.743Z,13.90
2023-03-22T11:12:39.012Z,13.97
2023-03-22T11:14:44.898Z,14.02
2023-03-22T11:16:54.571Z,14.06
2023-03-22T11:18:59.630Z,14.08
2023-03-22T11:21:08.206Z,14.06
2023-03-22T11:23:14.657Z,14.01
2023-03-22T11:25:22.495Z,13.96
2023-03-22T11:27:29.390Z,13.93
2023-03-22T11:29:41.776Z,13.92
2023-03-22T11:32:02.888Z,13.91
2023-03-22T11:34:18.382Z,13.90
2023-03-22T11:36:21.848Z,13.87
2023-03-22T11:38:30.869Z,13.86
2023-03-22T11:40:36.792Z,13.86
2023-03-22T11:42:41.572Z,13.88
2023-03-22T11:44:45.837Z,13.89
2023-03-22T11:46:55.720Z,13.91
2023-03-22T11:49:01.811Z,13.93
2023-03-22T11:51:09.604Z,13.95
2023-03-22T11:53:16.607Z,13.91
2023-03-22T11:55:20.705Z,13.88
2023-03-22T11:57:27.141Z,13.84
2023-03-22T11:59:37.825Z,13.83
2023-03-22T12:01:48.240Z,13.84
2023-03-22T12:03:56.778Z,13.85
2023-03-22T12:06:04.705Z,13.87
2023-03-22T12:08:17.999Z,13.87
2023-03-22T12:10:27.873Z,13.87
2023-03-22T12:12:34.573Z,13.90
2023-03-22T12:14:45.909Z,13.92
2023-03-22T12:16:50.887Z,13.93
2023-03-22T12:19:05.951Z,13.95
2023-03-22T12:21:11.356Z,13.96
2023-03-22T12:23:17.214Z,13.96
2023-03-22T12:25:24.448Z,13.95
2023-03-22T12:27:34.333Z,13.92
2023-03-22T12:29:43.954Z,13.87
2023-03-22T12:31:57.373Z,13.81
2023-03-22T12:34:04.394Z,13.78
2023-03-22T12:36:09.022Z,13.75
2023-03-22T12:38:25.161Z,13.71
2023-03-22T12:40:30.295Z,13.67
2023-03-22T12:42:47.901Z,13.65
2023-03-22T12:45:05.113Z,13.64
2023-03-22T12:47:16.899Z,13.61
2023-03-22T12:49:28.860Z,13.59
2023-03-22T12:51:32.129Z,13.56
2023-03-22T12:53:42.464Z,13.51
2023-03-22T12:55:48.404Z,13.44
2023-03-22T12:57:54.542Z,13.36
2023-03-22T13:00:10.176Z,13.28
2023-03-22T13:02:18.050Z,13.16
2023-03-22T13:04:33.554Z,13.05
2023-03-22T13:06:57.504Z,12.91
2023-03-22T13:09:19.080Z,12.75
2023-03-22T13:11:25.331Z,12.64
2023-03-22T13:13:49.322Z,12.52
2023-03-22T13:16:03.124Z,12.42
2023-03-22T13:18:06.468Z,12.35
2023-03-22T13:20:28.112Z,12.29
2023-03-22T13:22:51.158Z,12.22
2023-03-22T13:25:29.060Z,12.14
2023-03-22T13:27:41.839Z,12.10
2023-03-22T13:29:54.001Z,12.09
2023-03-22T13:32:00.013Z,12.08
2023-03-22T13:34:04.106Z,12.08
2023-03-22T13:36:25.041Z,12.10
2023-03-22T13:38:30.509Z,12.11
2023-03-22T13:40:39.637Z,12.11
2023-03-22T13:42:43.470Z,12.10
2023-03-22T13:44:53.040Z,12.10
2023-03-22T13:47:01.191Z,12.11
2023-03-22T13:49:27.989Z,12.13
2023-03-22T13:51:33.535Z,12.14
2023-03-22T13:53:37.774Z,12.15
2023-03-22T13:56:00.928Z,12.17
2023-03-22T13:58:05.595Z,12.18
2023-03-22T14:00:22.588Z,12.21
2023-03-22T14:02:30.086Z,12.22
2023-03-22T14:04:40.637Z,12.23
2023-03-22T14:06:51.207Z,12.23
2023-03-22T14:08:59.692Z,12.23
2023-03-22T14:11:18.141Z,12.24
2023-03-22T14:13:30.572Z,12.23
2023-03-22T14:15:38.566Z,12.25
2023-03-22T14:17:45.269Z,12.25
2023-03-22T14:19:50.891Z,12.24
